createdAt,value
2019-02-03T00:00:03.137Z,996.30
2019-02-03T00:01:03.088Z,996.32
2019-02-03T00:02:02.953Z,996.34
2019-02-03T00:03:02.899Z,996.36
2019-02-03T00:04:02.929Z,996.38
2019-02-03T00:05:02.851Z,996.36
2019-02-03T00:06:02.817Z,996.38
2019-02-03T00:07:03.701Z,996.39
2019-02-03T00:08:02.849Z,996.38
2019-02-03T00:09:02.729Z,996.38
2019-02-03T00:10:02.708Z,996.37
2019-02-03T00:11:02.709Z,996.39
2019-02-03T00:12:02.657Z,996.44
2019-02-03T00:13:02.649Z,996.45
2019-02-03T00:14:02.609Z,996.47
2019-02-03T00:15:02.602Z,996.46
2019-02-03T00:16:02.539Z,996.47
2019-02-03T00:17:02.521Z,996.46
2019-02-03T00:18:02.496Z,996.41
2019-02-03T00:19:02.482Z,996.41
2019-02-03T00:20:02.434Z,996.46
2019-02-03T00:21:04.030Z,996.49
2019-02-03T00:22:02.413Z,996.49
2019-02-03T00:23:02.364Z,996.52
2019-02-03T00:24:02.362Z,996.57
2019-02-03T00:25:02.301Z,996.53
2019-02-03T00:26:02.327Z,996.53
2019-02-03T00:27:02.280Z,996.57
2019-02-03T00:28:02.214Z,996.58
2019-02-03T00:29:02.214Z,996.61
2019-02-03T00:30:02.159Z,996.62
2019-02-03T00:31:02.136Z,996.60
2019-02-03T00:32:02.190Z,996.59
2019-02-03T00:33:02.089Z,996.54
2019-02-03T00:34:02.049Z,996.48
2019-02-03T00:35:02.100Z,996.50
2019-02-03T00:36:02.021Z,996.47
2019-02-03T00:37:02.041Z,996.46
2019-02-03T00:38:02.114Z,996.51
2019-02-03T00:39:01.975Z,996.53
2019-02-03T00:40:02.031Z,996.54
2019-02-03T00:41:02.031Z,996.58
2019-02-03T00:42:01.847Z,996.59
2019-02-03T00:43:01.837Z,996.66
2019-02-03T00:44:01.817Z,996.64
2019-02-03T00:45:01.768Z,996.65
2019-02-03T00:46:01.747Z,996.66
2019-02-03T00:47:01.701Z,996.73
2019-02-03T00:48:01.672Z,996.73
2019-02-03T00:49:01.653Z,996.72
2019-02-03T00:50:01.626Z,996.69
2019-02-03T00:51:01.599Z,996.67
2019-02-03T00:52:01.575Z,996.73
2019-02-03T00:53:01.559Z,996.74
2019-02-03T00:54:01.524Z,996.71
2019-02-03T00:55:01.508Z,996.76
2019-02-03T00:56:01.454Z,996.82
2019-02-03T00:57:01.432Z,996.87
2019-02-03T00:58:01.427Z,996.91
2019-02-03T00:59:01.498Z,996.92
2019-02-03T01:00:01.374Z,997.01
2019-02-03T01:01:01.462Z,997.01
2019-02-03T01:02:01.297Z,997.09
2019-02-03T01:03:01.269Z,997.11
2019-02-03T01:04:01.234Z,997.16
2019-02-03T01:05:01.227Z,997.20
2019-02-03T01:06:01.176Z,997.26
2019-02-03T01:07:01.204Z,997.27
2019-02-03T01:08:01.546Z,997.24
2019-02-03T01:09:01.453Z,997.28
2019-02-03T01:10:01.268Z,997.26
2019-02-03T01:11:01.198Z,997.29
2019-02-03T01:12:01.020Z,997.32
2019-02-03T01:13:01.306Z,997.33
2019-02-03T01:14:00.958Z,997.39
2019-02-03T01:15:00.974Z,997.43
2019-02-03T01:16:00.911Z,997.46
2019-02-03T01:17:00.879Z,997.49
2019-02-03T01:18:00.872Z,997.52
2019-02-03T01:19:00.854Z,997.47
2019-02-03T01:20:00.826Z,997.54
2019-02-03T01:21:00.762Z,997.54
2019-02-03T01:22:00.746Z,997.51
2019-02-03T01:23:00.721Z,997.55
2019-02-03T01:24:00.708Z,997.53
2019-02-03T01:25:00.707Z,997.58
2019-02-03T01:26:00.715Z,997.56
2019-02-03T01:27:00.603Z,997.59
2019-02-03T01:28:00.577Z,997.57
2019-02-03T01:29:00.543Z,997.61
2019-02-03T01:30:00.518Z,997.62
2019-02-03T01:31:00.520Z,997.63
2019-02-03T01:32:00.475Z,997.65
2019-02-03T01:33:00.430Z,997.69
2019-02-03T01:34:00.456Z,997.68
2019-02-03T01:35:00.407Z,997.67
2019-02-03T01:36:00.395Z,997.64
2019-02-03T01:37:00.362Z,997.64
2019-02-03T01:38:00.322Z,997.64
2019-02-03T01:39:00.289Z,997.64
2019-02-03T01:40:00.362Z,997.66
2019-02-03T01:41:00.219Z,997.62
2019-02-03T01:42:00.213Z,997.62
2019-02-03T01:43:00.241Z,997.66
2019-02-03T01:44:00.139Z,997.68
2019-02-03T01:45:00.318Z,997.67
2019-02-03T01:46:00.175Z,997.68
2019-02-03T01:47:00.055Z,997.69
2019-02-03T01:48:00.037Z,997.67
2019-02-03T01:49:00.030Z,997.75
2019-02-03T01:49:59.981Z,997.76
2019-02-03T01:50:59.944Z,997.73
2019-02-03T01:51:59.912Z,997.80
2019-02-03T01:52:59.932Z,997.84
2019-02-03T01:53:59.872Z,997.83
2019-02-03T01:54:59.833Z,997.84
2019-02-03T01:55:59.834Z,997.85
2019-02-03T01:56:59.796Z,997.84
2019-02-03T01:57:59.764Z,997.85
2019-02-03T01:58:59.731Z,997.86
2019-02-03T01:59:59.723Z,997.88
2019-02-03T02:00:59.666Z,997.88
2019-02-03T02:01:59.669Z,997.92
2019-02-03T02:02:59.637Z,997.89
2019-02-03T02:03:59.627Z,997.93
2019-02-03T02:04:59.566Z,997.92
2019-02-03T02:05:59.579Z,997.93
2019-02-03T02:06:59.516Z,997.97
2019-02-03T02:07:59.500Z,998.01
2019-02-03T02:08:59.466Z,998.00
2019-02-03T02:09:59.421Z,998.07
2019-02-03T02:10:59.407Z,998.05
2019-02-03T02:11:59.378Z,998.08
2019-02-03T02:12:59.356Z,998.07
2019-02-03T02:13:59.321Z,998.06
2019-02-03T02:14:59.315Z,998.06
2019-02-03T02:15:59.264Z,998.07
2019-02-03T02:16:59.278Z,998.08
2019-02-03T02:17:59.211Z,998.09
2019-02-03T02:18:59.186Z,998.13
2019-02-03T02:19:59.153Z,998.08
2019-02-03T02:20:59.135Z,998.08
2019-02-03T02:21:59.097Z,998.12
2019-02-03T02:22:59.070Z,998.15
2019-02-03T02:23:59.051Z,998.20
2019-02-03T02:24:59.018Z,998.20
2019-02-03T02:25:58.984Z,998.22
2019-02-03T02:26:58.965Z,998.25
2019-02-03T02:27:58.982Z,998.23
2019-02-03T02:28:58.946Z,998.20
2019-02-03T02:29:58.900Z,998.21
2019-02-03T02:30:58.862Z,998.18
2019-02-03T02:31:58.856Z,998.18
2019-02-03T02:32:58.791Z,998.21
2019-02-03T02:33:58.773Z,998.18
2019-02-03T02:34:58.806Z,998.19
2019-02-03T02:35:58.724Z,998.23
2019-02-03T02:36:58.801Z,998.22
2019-02-03T02:38:06.534Z,998.24
2019-02-03T02:38:58.667Z,998.20
2019-02-03T02:40:11.779Z,998.25
2019-02-03T02:40:58.609Z,998.30
2019-02-03T02:41:58.596Z,998.31
2019-02-03T02:42:58.614Z,998.36
2019-02-03T02:43:58.561Z,998.34
2019-02-03T02:44:58.497Z,998.32
2019-02-03T02:45:58.460Z,998.36
2019-02-03T02:46:58.458Z,998.34
2019-02-03T02:47:58.387Z,998.34
2019-02-03T02:48:58.371Z,998.37
2019-02-03T02:49:58.374Z,998.34
2019-02-03T02:50:58.302Z,998.36
2019-02-03T02:51:58.285Z,998.38
2019-02-03T02:52:58.257Z,998.38
2019-02-03T02:53:58.977Z,998.43
2019-02-03T02:54:58.212Z,998.42
2019-02-03T02:55:58.225Z,998.39
2019-02-03T02:56:58.172Z,998.44
2019-02-03T02:57:58.132Z,998.48
2019-02-03T02:58:58.262Z,998.48
2019-02-03T02:59:58.141Z,998.49
2019-02-03T03:00:58.040Z,998.47
2019-02-03T03:01:58.047Z,998.42
2019-02-03T03:02:58.037Z,998.43
2019-02-03T03:03:57.964Z,998.40
2019-02-03T03:04:57.931Z,998.39
2019-02-03T03:05:57.936Z,998.36
2019-02-03T03:06:57.868Z,998.43
2019-02-03T03:07:57.919Z,998.46
2019-02-03T03:08:57.824Z,998.49
2019-02-03T03:09:57.787Z,998.46
2019-02-03T03:10:57.770Z,998.47
2019-02-03T03:11:57.749Z,998.45
2019-02-03T03:12:57.720Z,998.46
2019-02-03T03:13:57.716Z,998.53
2019-02-03T03:14:57.669Z,998.58
2019-02-03T03:15:57.693Z,998.56
2019-02-03T03:16:57.598Z,998.61
2019-02-03T03:17:57.627Z,998.59
2019-02-03T03:18:57.545Z,998.61
2019-02-03T03:19:57.535Z,998.61
2019-02-03T03:20:57.487Z,998.65
2019-02-03T03:21:57.465Z,998.61
2019-02-03T03:22:57.455Z,998.59
2019-02-03T03:23:57.446Z,998.61
2019-02-03T03:24:57.412Z,998.62
2019-02-03T03:25:57.375Z,998.56
2019-02-03T03:26:57.346Z,998.58
2019-02-03T03:27:57.365Z,998.59
2019-02-03T03:28:57.303Z,998.62
2019-02-03T03:29:57.270Z,998.58
2019-02-03T03:30:57.222Z,998.57
2019-02-03T03:31:57.216Z,998.51
2019-02-03T03:32:57.162Z,998.48
2019-02-03T03:33:57.148Z,998.50
2019-02-03T03:34:57.128Z,998.51
2019-02-03T03:35:57.091Z,998.51
2019-02-03T03:36:57.097Z,998.47
2019-02-03T03:37:57.052Z,998.48
2019-02-03T03:38:56.995Z,998.44
2019-02-03T03:39:56.976Z,998.49
2019-02-03T03:40:56.945Z,998.48
2019-02-03T03:41:56.937Z,998.48
2019-02-03T03:42:56.889Z,998.52
2019-02-03T03:43:56.893Z,998.50
2019-02-03T03:44:56.831Z,998.52
2019-02-03T03:45:56.814Z,998.56
2019-02-03T03:46:56.788Z,998.55
2019-02-03T03:47:56.769Z,998.58
2019-02-03T03:48:56.750Z,998.65
2019-02-03T03:49:56.717Z,998.71
2019-02-03T03:50:56.668Z,998.68
2019-02-03T03:51:56.659Z,998.74
2019-02-03T03:52:56.618Z,998.72
2019-02-03T03:53:56.664Z,998.78
2019-02-03T03:54:56.609Z,998.77
2019-02-03T03:55:56.538Z,998.83
2019-02-03T03:56:56.516Z,998.82
2019-02-03T03:57:56.517Z,998.82
2019-02-03T03:58:56.509Z,998.85
2019-02-03T03:59:56.422Z,998.88
2019-02-03T04:00:56.411Z,998.93
2019-02-03T04:01:56.389Z,998.92
2019-02-03T04:02:56.373Z,998.96
2019-02-03T04:03:56.341Z,998.95
2019-02-03T04:04:56.284Z,998.95
2019-02-03T04:05:56.263Z,998.94
2019-02-03T04:06:56.245Z,998.93
2019-02-03T04:07:56.242Z,998.94
2019-02-03T04:08:56.180Z,998.93
2019-02-03T04:09:56.244Z,998.98
2019-02-03T04:10:56.164Z,998.95
2019-02-03T04:11:56.099Z,998.97
2019-02-03T04:12:56.088Z,998.96
2019-02-03T04:13:56.043Z,998.93
2019-02-03T04:14:56.021Z,998.88
2019-02-03T04:15:55.993Z,998.89
2019-02-03T04:16:55.975Z,998.86
2019-02-03T04:17:56.001Z,998.89
2019-02-03T04:18:56.111Z,998.90
2019-02-03T04:19:55.897Z,998.98
2019-02-03T04:20:55.875Z,998.98
2019-02-03T04:21:55.863Z,999.00
2019-02-03T04:22:55.895Z,999.05
2019-02-03T04:23:55.792Z,999.07
2019-02-03T04:24:55.744Z,999.11
2019-02-03T04:25:55.728Z,999.16
2019-02-03T04:26:55.692Z,999.22
2019-02-03T04:27:55.674Z,999.25
2019-02-03T04:28:55.630Z,999.31
2019-02-03T04:29:55.608Z,999.36
2019-02-03T04:30:55.593Z,999.42
2019-02-03T04:31:55.620Z,999.44
2019-02-03T04:32:55.695Z,999.46
2019-02-03T04:33:55.535Z,999.51
2019-02-03T04:34:55.471Z,999.50
2019-02-03T04:35:55.479Z,999.53
2019-02-03T04:36:55.493Z,999.59
2019-02-03T04:37:55.404Z,999.59
2019-02-03T04:38:58.184Z,999.60
2019-02-03T04:39:55.366Z,999.65
2019-02-03T04:40:55.405Z,999.69
2019-02-03T04:41:55.285Z,999.76
2019-02-03T04:42:55.292Z,999.81
2019-02-03T04:43:55.263Z,999.88
2019-02-03T04:44:55.284Z,999.89
2019-02-03T04:45:55.183Z,999.97
2019-02-03T04:46:55.150Z,999.96
2019-02-03T04:47:55.144Z,999.98
2019-02-03T04:48:55.090Z,1000.07
2019-02-03T04:49:55.072Z,1000.09
2019-02-03T04:50:55.062Z,1000.11
2019-02-03T04:51:55.046Z,1000.11
2019-02-03T04:52:55.019Z,1000.20
2019-02-03T04:53:54.973Z,1000.22
2019-02-03T04:54:54.947Z,1000.23
2019-02-03T04:55:54.925Z,1000.28
2019-02-03T04:56:54.904Z,1000.32
2019-02-03T04:57:54.847Z,1000.32
2019-02-03T04:58:54.886Z,1000.36
2019-02-03T04:59:54.805Z,1000.34
2019-02-03T05:00:54.768Z,1000.38
2019-02-03T05:01:54.784Z,1000.34
2019-02-03T05:02:54.703Z,1000.37
2019-02-03T05:03:54.699Z,1000.38
2019-02-03T05:04:54.682Z,1000.40
2019-02-03T05:05:54.647Z,1000.41
2019-02-03T05:06:54.610Z,1000.42
2019-02-03T05:07:54.675Z,1000.44
2019-02-03T05:08:54.575Z,1000.47
2019-02-03T05:09:54.522Z,1000.46
2019-02-03T05:10:54.497Z,1000.52
2019-02-03T05:11:54.464Z,1000.51
2019-02-03T05:12:54.431Z,1000.50
2019-02-03T05:13:54.411Z,1000.53
2019-02-03T05:14:54.408Z,1000.51
2019-02-03T05:15:54.382Z,1000.57
2019-02-03T05:16:54.339Z,1000.51
2019-02-03T05:17:54.314Z,1000.55
2019-02-03T05:18:54.342Z,1000.56
2019-02-03T05:19:54.251Z,1000.57
2019-02-03T05:20:54.236Z,1000.59
2019-02-03T05:21:54.224Z,1000.63
2019-02-03T05:22:54.261Z,1000.64
2019-02-03T05:23:54.144Z,1000.70
2019-02-03T05:24:54.124Z,1000.73
2019-02-03T05:25:54.587Z,1000.73
2019-02-03T05:26:54.078Z,1000.78
2019-02-03T05:27:54.036Z,1000.86
2019-02-03T05:28:54.000Z,1000.88
2019-02-03T05:29:53.977Z,1000.91
2019-02-03T05:30:53.951Z,1000.91
2019-02-03T05:31:53.943Z,1000.96
2019-02-03T05:32:53.905Z,1000.97
2019-02-03T05:33:53.950Z,1000.99
2019-02-03T05:34:53.841Z,1001.01
2019-02-03T05:35:53.829Z,1001.06
2019-02-03T05:36:53.801Z,1001.04
2019-02-03T05:37:53.780Z,1001.04
2019-02-03T05:38:55.330Z,1001.09
2019-02-03T05:39:53.722Z,1001.11
2019-02-03T05:40:53.671Z,1001.11
2019-02-03T05:41:53.647Z,1001.12
2019-02-03T05:42:53.695Z,1001.13
2019-02-03T05:43:53.591Z,1001.21
2019-02-03T05:44:53.567Z,1001.22
2019-02-03T05:45:53.587Z,1001.25
2019-02-03T05:46:53.590Z,1001.24
2019-02-03T05:47:53.527Z,1001.24
2019-02-03T05:48:53.459Z,1001.24
2019-02-03T05:49:53.433Z,1001.27
2019-02-03T05:50:53.400Z,1001.31
2019-02-03T05:51:53.359Z,1001.34
2019-02-03T05:52:53.360Z,1001.36
2019-02-03T05:53:53.312Z,1001.36
2019-02-03T05:54:53.287Z,1001.40
2019-02-03T05:55:53.253Z,1001.41
2019-02-03T05:56:53.305Z,1001.43
2019-02-03T05:57:53.237Z,1001.42
2019-02-03T05:58:53.173Z,1001.43
2019-02-03T05:59:53.179Z,1001.41
2019-02-03T06:00:53.158Z,1001.45
2019-02-03T06:01:53.104Z,1001.47
2019-02-03T06:02:53.090Z,1001.43
2019-02-03T06:03:53.064Z,1001.45
2019-02-03T06:04:53.019Z,1001.44
2019-02-03T06:05:52.996Z,1001.46
2019-02-03T06:06:53.022Z,1001.49
2019-02-03T06:07:52.944Z,1001.54
2019-02-03T06:08:52.906Z,1001.49
2019-02-03T06:09:52.882Z,1001.57
2019-02-03T06:10:52.847Z,1001.57
2019-02-03T06:11:52.857Z,1001.60
2019-02-03T06:12:52.811Z,1001.62
2019-02-03T06:13:52.768Z,1001.65
2019-02-03T06:14:52.751Z,1001.60
2019-02-03T06:15:52.710Z,1001.59
2019-02-03T06:16:52.692Z,1001.58
2019-02-03T06:17:52.663Z,1001.54
2019-02-03T06:18:52.671Z,1001.56
2019-02-03T06:19:52.649Z,1001.50
2019-02-03T06:20:52.572Z,1001.53
2019-02-03T06:21:52.568Z,1001.55
2019-02-03T06:22:52.522Z,1001.56
2019-02-03T06:23:52.543Z,1001.58
2019-02-03T06:24:52.466Z,1001.61
2019-02-03T06:25:52.439Z,1001.66
2019-02-03T06:26:52.460Z,1001.67
2019-02-03T06:27:52.430Z,1001.79
2019-02-03T06:28:52.364Z,1001.82
2019-02-03T06:29:52.342Z,1001.87
2019-02-03T06:30:52.334Z,1001.86
2019-02-03T06:31:52.314Z,1001.89
2019-02-03T06:32:52.274Z,1001.85
2019-02-03T06:33:52.243Z,1001.84
2019-02-03T06:34:52.190Z,1001.87
2019-02-03T06:35:52.188Z,1001.90
2019-02-03T06:36:52.191Z,1001.83
2019-02-03T06:37:52.113Z,1001.82
2019-02-03T06:38:52.090Z,1001.85
2019-02-03T06:39:52.053Z,1001.84
2019-02-03T06:40:52.036Z,1001.80
2019-02-03T06:41:52.123Z,1001.80
2019-02-03T06:42:52.001Z,1001.78
2019-02-03T06:43:51.976Z,1001.83
2019-02-03T06:44:51.921Z,1001.84
2019-02-03T06:45:51.917Z,1001.86
2019-02-03T06:46:51.859Z,1001.86
2019-02-03T06:47:51.839Z,1001.88
2019-02-03T06:48:51.929Z,1001.87
2019-02-03T06:49:51.777Z,1001.89
2019-02-03T06:50:51.784Z,1001.88
2019-02-03T06:51:51.755Z,1001.91
2019-02-03T06:52:51.728Z,1001.93
2019-02-03T06:53:51.704Z,1001.93
2019-02-03T06:54:51.646Z,1001.92
2019-02-03T06:55:51.646Z,1001.92
2019-02-03T06:56:51.604Z,1001.94
2019-02-03T06:57:51.569Z,1001.95
2019-02-03T06:58:51.535Z,1001.94
2019-02-03T06:59:51.589Z,1001.96
2019-02-03T07:00:51.513Z,1001.93
2019-02-03T07:01:51.447Z,1001.94
2019-02-03T07:02:51.425Z,1001.92
2019-02-03T07:03:51.392Z,1001.92
2019-02-03T07:04:51.374Z,1001.87
2019-02-03T07:05:51.369Z,1001.92
2019-02-03T07:06:51.312Z,1001.94
2019-02-03T07:07:51.294Z,1001.98
2019-02-03T07:08:51.273Z,1001.95
2019-02-03T07:10:00.361Z,1002.02
2019-02-03T07:10:51.206Z,1002.05
2019-02-03T07:11:51.179Z,1002.05
2019-02-03T07:12:51.188Z,1002.06
2019-02-03T07:13:51.138Z,1002.10
2019-02-03T07:14:51.097Z,1002.10
2019-02-03T07:15:51.062Z,1002.12
2019-02-03T07:16:51.046Z,1002.12
2019-02-03T07:17:51.035Z,1002.15
2019-02-03T07:18:51.011Z,1002.19
2019-02-03T07:19:50.957Z,1002.16
2019-02-03T07:20:50.934Z,1002.13
2019-02-03T07:21:50.919Z,1002.14
2019-02-03T07:22:50.880Z,1002.13
2019-02-03T07:23:50.847Z,1002.16
2019-02-03T07:24:50.822Z,1002.14
2019-02-03T07:25:50.788Z,1002.17
2019-02-03T07:26:50.771Z,1002.18
2019-02-03T07:27:50.737Z,1002.18
2019-02-03T07:28:50.710Z,1002.23
2019-02-03T07:29:50.683Z,1002.25
2019-02-03T07:30:50.646Z,1002.27
2019-02-03T07:31:50.618Z,1002.24
2019-02-03T07:32:50.601Z,1002.25
2019-02-03T07:33:50.601Z,1002.28
2019-02-03T07:34:50.552Z,1002.28
2019-02-03T07:35:50.542Z,1002.29
2019-02-03T07:36:50.505Z,1002.29
2019-02-03T07:37:50.462Z,1002.34
2019-02-03T07:38:50.432Z,1002.36
2019-02-03T07:39:50.441Z,1002.39
2019-02-03T07:40:50.373Z,1002.39
2019-02-03T07:41:50.359Z,1002.42
2019-02-03T07:42:50.324Z,1002.47
2019-02-03T07:43:50.302Z,1002.47
2019-02-03T07:44:50.270Z,1002.53
2019-02-03T07:45:50.247Z,1002.52
2019-02-03T07:46:50.228Z,1002.52
2019-02-03T07:47:50.249Z,1002.52
2019-02-03T07:48:50.205Z,1002.56
2019-02-03T07:49:50.133Z,1002.55
2019-02-03T07:50:50.113Z,1002.54
2019-02-03T07:51:50.094Z,1002.57
2019-02-03T07:52:50.038Z,1002.55
2019-02-03T07:53:50.035Z,1002.56
2019-02-03T07:54:50.015Z,1002.54
2019-02-03T07:55:49.958Z,1002.54
2019-02-03T07:56:49.934Z,1002.51
2019-02-03T07:57:49.937Z,1002.55
2019-02-03T07:58:49.878Z,1002.58
2019-02-03T07:59:49.853Z,1002.69
2019-02-03T08:00:49.824Z,1002.62
2019-02-03T08:01:49.795Z,1002.65
2019-02-03T08:02:49.764Z,1002.64
2019-02-03T08:03:49.736Z,1002.62
2019-02-03T08:04:49.713Z,1002.61
2019-02-03T08:05:49.882Z,1002.63
2019-02-03T08:06:49.731Z,1002.64
2019-02-03T08:07:49.658Z,1002.67
2019-02-03T08:08:49.599Z,1002.71
2019-02-03T08:09:49.586Z,1002.74
2019-02-03T08:10:49.547Z,1002.76
2019-02-03T08:11:49.510Z,1002.78
2019-02-03T08:12:49.489Z,1002.82
2019-02-03T08:13:49.483Z,1002.85
2019-02-03T08:14:49.437Z,1002.88
2019-02-03T08:15:49.461Z,1002.93
2019-02-03T08:16:49.381Z,1002.93
2019-02-03T08:17:49.345Z,1002.93
2019-02-03T08:18:49.342Z,1002.93
2019-02-03T08:19:49.304Z,1003.00
2019-02-03T08:20:49.281Z,1003.09
2019-02-03T08:21:49.247Z,1003.09
2019-02-03T08:22:49.229Z,1003.12
2019-02-03T08:23:51.220Z,1003.11
2019-02-03T08:24:49.159Z,1003.15
2019-02-03T08:25:49.130Z,1003.18
2019-02-03T08:26:49.108Z,1003.20
2019-02-03T08:27:49.100Z,1003.23
2019-02-03T08:28:49.057Z,1003.23
2019-02-03T08:29:49.036Z,1003.25
2019-02-03T08:30:48.995Z,1003.22
2019-02-03T08:31:48.971Z,1003.19
2019-02-03T08:32:48.937Z,1003.23
2019-02-03T08:33:48.912Z,1003.24
2019-02-03T08:34:48.874Z,1003.22
2019-02-03T08:35:48.868Z,1003.23
2019-02-03T08:36:48.823Z,1003.23
2019-02-03T08:37:48.801Z,1003.23
2019-02-03T08:38:48.774Z,1003.24
2019-02-03T08:39:48.741Z,1003.32
2019-02-03T08:40:48.718Z,1003.32
2019-02-03T08:41:48.688Z,1003.32
2019-02-03T08:42:48.666Z,1003.33
2019-02-03T08:43:48.632Z,1003.35
2019-02-03T08:44:48.614Z,1003.36
2019-02-03T08:45:48.591Z,1003.38
2019-02-03T08:46:48.559Z,1003.43
2019-02-03T08:47:48.526Z,1003.44
2019-02-03T08:48:48.523Z,1003.52
2019-02-03T08:49:48.479Z,1003.49
2019-02-03T08:50:48.443Z,1003.50
2019-02-03T08:51:48.447Z,1003.51
2019-02-03T08:52:51.331Z,1003.56
2019-02-03T08:53:48.361Z,1003.56
2019-02-03T08:54:57.960Z,1003.63
2019-02-03T08:55:48.366Z,1003.63
2019-02-03T08:56:48.274Z,1003.65
2019-02-03T08:57:48.252Z,1003.60
2019-02-03T08:58:48.221Z,1003.65
2019-02-03T08:59:48.210Z,1003.67
2019-02-03T09:00:48.174Z,1003.67
2019-02-03T09:01:48.144Z,1003.71
2019-02-03T09:02:48.127Z,1003.73
2019-02-03T09:03:48.084Z,1003.75
2019-02-03T09:04:48.064Z,1003.74
2019-02-03T09:05:48.034Z,1003.76
2019-02-03T09:06:48.008Z,1003.75
2019-02-03T09:07:48.015Z,1003.71
2019-02-03T09:08:47.950Z,1003.74
2019-02-03T09:09:47.928Z,1003.75
2019-02-03T09:10:48.917Z,1003.75
2019-02-03T09:11:47.906Z,1003.77
2019-02-03T09:12:47.848Z,1003.80
2019-02-03T09:13:47.824Z,1003.83
2019-02-03T09:14:47.799Z,1003.83
2019-02-03T09:15:47.770Z,1003.84
2019-02-03T09:16:47.735Z,1003.87
2019-02-03T09:17:47.704Z,1003.84
2019-02-03T09:18:47.682Z,1003.81
2019-02-03T09:19:47.659Z,1003.83
2019-02-03T09:20:48.313Z,1003.81
2019-02-03T09:21:47.604Z,1003.86
2019-02-03T09:22:47.571Z,1003.85
2019-02-03T09:23:47.565Z,1003.87
2019-02-03T09:24:47.552Z,1003.92
2019-02-03T09:25:47.494Z,1003.90
2019-02-03T09:26:47.469Z,1003.92
2019-02-03T09:27:47.468Z,1003.92
2019-02-03T09:28:47.441Z,1003.96
2019-02-03T09:29:47.409Z,1004.01
2019-02-03T09:30:47.370Z,1004.01
2019-02-03T09:31:47.333Z,1004.05
2019-02-03T09:32:47.317Z,1004.03
2019-02-03T09:33:47.304Z,1004.07
2019-02-03T09:34:47.248Z,1004.08
2019-02-03T09:35:47.233Z,1004.05
2019-02-03T09:36:47.234Z,1004.09
2019-02-03T09:37:47.176Z,1004.09
2019-02-03T09:38:47.154Z,1004.14
2019-02-03T09:39:47.146Z,1004.14
2019-02-03T09:40:47.109Z,1004.15
2019-02-03T09:41:47.157Z,1004.13
2019-02-03T09:42:47.301Z,1004.13
2019-02-03T09:43:47.007Z,1004.13
2019-02-03T09:44:47.016Z,1004.13
2019-02-03T09:45:46.963Z,1004.12
2019-02-03T09:46:46.924Z,1004.16
2019-02-03T09:47:46.926Z,1004.14
2019-02-03T09:48:46.901Z,1004.18
2019-02-03T09:49:46.865Z,1004.16
2019-02-03T09:50:46.829Z,1004.15
2019-02-03T09:51:46.812Z,1004.18
2019-02-03T09:52:46.812Z,1004.16
2019-02-03T09:53:46.742Z,1004.22
2019-02-03T09:54:46.746Z,1004.23
2019-02-03T09:55:46.697Z,1004.24
2019-02-03T09:56:46.690Z,1004.26
2019-02-03T09:57:46.640Z,1004.31
2019-02-03T09:58:46.620Z,1004.33
2019-02-03T09:59:46.586Z,1004.31
2019-02-03T10:00:46.583Z,1004.34
2019-02-03T10:01:46.527Z,1004.37
2019-02-03T10:02:46.505Z,1004.37
2019-02-03T10:03:46.471Z,1004.36
2019-02-03T10:04:46.492Z,1004.36
2019-02-03T10:05:46.424Z,1004.38
2019-02-03T10:06:46.408Z,1004.39
2019-02-03T10:07:46.372Z,1004.43
2019-02-03T10:08:46.333Z,1004.42
2019-02-03T10:09:46.377Z,1004.47
2019-02-03T10:10:46.303Z,1004.49
2019-02-03T10:11:46.262Z,1004.51
2019-02-03T10:12:46.234Z,1004.50
2019-02-03T10:13:46.206Z,1004.55
2019-02-03T10:14:46.178Z,1004.55
2019-02-03T10:15:46.184Z,1004.58
2019-02-03T10:16:47.576Z,1004.61
2019-02-03T10:17:46.098Z,1004.63
2019-02-03T10:18:46.087Z,1004.63
2019-02-03T10:19:46.057Z,1004.63
2019-02-03T10:20:46.027Z,1004.66
2019-02-03T10:21:46.085Z,1004.66
2019-02-03T10:22:46.002Z,1004.66
2019-02-03T10:23:46.044Z,1004.67
2019-02-03T10:24:45.936Z,1004.73
2019-02-03T10:25:45.895Z,1004.73
2019-02-03T10:26:45.854Z,1004.75
2019-02-03T10:27:45.855Z,1004.73
2019-02-03T10:28:46.729Z,1004.76
2019-02-03T10:29:45.790Z,1004.76
2019-02-03T10:30:45.759Z,1004.78
2019-02-03T10:31:45.772Z,1004.81
2019-02-03T10:32:45.718Z,1004.86
2019-02-03T10:33:45.686Z,1004.86
2019-02-03T10:34:45.647Z,1004.91
2019-02-03T10:35:45.650Z,1004.93
2019-02-03T10:36:45.609Z,1004.94
2019-02-03T10:37:45.572Z,1004.97
2019-02-03T10:38:45.594Z,1004.92
2019-02-03T10:39:45.649Z,1004.95
2019-02-03T10:40:45.527Z,1004.99
2019-02-03T10:41:45.468Z,1004.95
2019-02-03T10:42:45.455Z,1005.02
2019-02-03T10:43:45.421Z,1005.02
2019-02-03T10:44:45.415Z,1005.07
2019-02-03T10:45:45.357Z,1005.03
2019-02-03T10:46:45.344Z,1005.06
2019-02-03T10:47:45.891Z,1005.09
2019-02-03T10:48:45.278Z,1005.11
2019-02-03T10:49:46.803Z,1005.15
2019-02-03T10:50:45.286Z,1005.10
2019-02-03T10:51:45.580Z,1005.15
2019-02-03T10:52:45.172Z,1005.09
2019-02-03T10:53:45.169Z,1005.14
2019-02-03T10:54:45.172Z,1005.16
2019-02-03T10:55:45.102Z,1005.21
2019-02-03T10:56:45.091Z,1005.25
2019-02-03T10:57:45.053Z,1005.27
2019-02-03T10:58:45.046Z,1005.28
2019-02-03T10:59:45.009Z,1005.31
2019-02-03T11:00:44.970Z,1005.30
2019-02-03T11:03:18.059Z,1005.37
2019-02-03T11:04:07.938Z,1005.36
2019-02-03T11:05:07.943Z,1005.35
2019-02-03T11:06:07.887Z,1005.37
2019-02-03T11:07:07.947Z,1005.42
2019-02-03T11:08:07.864Z,1005.40
2019-02-03T11:09:07.819Z,1005.41
2019-02-03T11:10:07.819Z,1005.45
2019-02-03T11:11:07.751Z,1005.42
2019-02-03T11:12:07.746Z,1005.41
2019-02-03T11:13:07.721Z,1005.46
2019-02-03T11:14:07.674Z,1005.51
2019-02-03T11:15:07.664Z,1005.54
2019-02-03T11:16:07.647Z,1005.51
2019-02-03T11:17:07.611Z,1005.54
2019-02-03T11:18:07.567Z,1005.55
2019-02-03T11:19:07.567Z,1005.54
2019-02-03T11:20:07.520Z,1005.64
2019-02-03T11:21:07.501Z,1005.64
2019-02-03T11:22:07.490Z,1005.64
2019-02-03T11:23:07.454Z,1005.64
2019-02-03T11:24:07.426Z,1005.62
2019-02-03T11:25:07.413Z,1005.62
2019-02-03T11:26:07.386Z,1005.65
2019-02-03T11:27:07.338Z,1005.67
2019-02-03T11:28:07.343Z,1005.68
2019-02-03T11:29:07.330Z,1005.71
2019-02-03T11:30:07.268Z,1005.68
2019-02-03T11:31:07.261Z,1005.69
2019-02-03T11:32:07.245Z,1005.75
2019-02-03T11:33:08.038Z,1005.77
2019-02-03T11:34:07.193Z,1005.76
2019-02-03T11:35:07.157Z,1005.81
2019-02-03T11:36:07.131Z,1005.83
2019-02-03T11:37:07.107Z,1005.82
2019-02-03T11:38:07.097Z,1005.82
2019-02-03T11:39:07.075Z,1005.79
2019-02-03T11:40:07.032Z,1005.80
2019-02-03T11:41:06.994Z,1005.83
2019-02-03T11:42:06.965Z,1005.83
2019-02-03T11:43:06.961Z,1005.87
2019-02-03T11:44:06.915Z,1005.82
2019-02-03T11:45:06.896Z,1005.86
2019-02-03T11:46:06.869Z,1005.87
2019-02-03T11:47:06.839Z,1005.86
2019-02-03T11:48:06.852Z,1005.89
2019-02-03T11:49:06.878Z,1005.86
2019-02-03T11:50:06.803Z,1005.88
2019-02-03T11:51:06.758Z,1005.93
2019-02-03T11:52:06.733Z,1005.95
2019-02-03T11:53:06.695Z,1005.96
2019-02-03T11:54:06.675Z,1005.99
2019-02-03T11:55:06.642Z,1006.02
2019-02-03T11:56:06.641Z,1006.02
2019-02-03T11:57:06.622Z,1006.09
2019-02-03T11:58:06.645Z,1006.08
2019-02-03T11:59:06.562Z,1006.09
2019-02-03T12:00:06.547Z,1006.08
2019-02-03T12:01:06.500Z,1006.06
2019-02-03T12:02:06.489Z,1006.04
2019-02-03T12:03:06.455Z,1006.03
2019-02-03T12:04:06.429Z,1006.02
2019-02-03T12:05:06.405Z,1006.00
2019-02-03T12:06:06.368Z,1006.07
2019-02-03T12:07:06.339Z,1006.03
2019-02-03T12:08:06.362Z,1006.06
2019-02-03T12:09:06.327Z,1006.07
2019-02-03T12:10:06.274Z,1006.07
2019-02-03T12:11:06.244Z,1006.11
2019-02-03T12:12:06.217Z,1006.07
2019-02-03T12:13:06.187Z,1006.10
2019-02-03T12:14:06.184Z,1006.10
2019-02-03T12:15:06.171Z,1006.16